Time;durP1;ratioP1;P1;durP2;ratioP2;P2;SDS_P1;SDS_P2;PMS_P1;PMS_P2;Temp;Humidity;BMP_temperature;BMP_pressure;BME280_temperature;BME280_humidity;BME280_pressure;Samples;Min_cycle;Max_cycle;Signal;HPM_P1;HPM_P2
2022/03/13 00:00:10;;;;;;;;;;;;;;;5.26;60.49;99464.41;5039836;28;20021;-59
2022/03/13 00:02:35;;;;;;;29.40;19.92;;;;;;;5.25;61.26;99479.00;5040039;28;19960;-59
2022/03/13 00:05:01;;;;;;;30.75;20.52;;;;;;;4.88;61.51;99414.13;5028394;28;20025;-60
2022/03/13 00:07:28;;;;;;;31.90;20.48;;;;;;;5.09;61.57;99466.22;5025410;28;20038;-58
2022/03/13 00:09:54;;;;;;;31.65;20.63;;;;;;;4.92;60.73;99471.50;5024127;28;20075;-59
2022/03/13 00:12:25;;;;;;;31.35;21.15;;;;;;;4.89;60.64;99462.19;5027931;28;20033;-59
2022/03/13 00:14:55;;;;;;;31.95;21.38;;;;;;;4.85;60.35;99460.69;5037291;28;20435;-60
2022/03/13 00:17:24;;;;;;;30.95;20.42;;;;;;;4.88;60.36;99470.84;5037764;28;20025;-59
2022/03/13 00:19:50;;;;;;;25.85;17.85;;;;;;;4.76;60.46;99468.94;5040191;28;20048;-59
2022/03/13 00:22:16;;;;;;;31.60;19.02;;;;;;;4.73;60.17;99454.50;5038888;28;20037;-59
2022/03/13 00:24:41;;;;;;;26.80;18.63;;;;;;;4.81;60.06;99464.38;5025596;28;20041;-59
2022/03/13 00:27:08;;;;;;;30.73;19.17;;;;;;;4.76;59.74;99467.22;5026396;28;20026;-59
2022/03/13 00:29:34;;;;;;;30.75;19.00;;;;;;;4.66;59.86;99465.25;5036535;28;20100;-59
2022/03/13 00:31:59;;;;;;;31.42;19.52;;;;;;;4.30;59.11;99402.00;5026529;28;20022;-59
2022/03/13 00:34:24;;;;;;;30.48;19.80;;;;;;;4.50;59.19;99457.53;5031841;28;20037;-59
2022/03/13 00:36:50;;;;;;;31.52;19.08;;;;;;;4.56;58.47;99449.47;5031445;28;20492;-58
2022/03/13 00:39:16;;;;;;;29.58;19.35;;;;;;;4.41;59.36;99454.53;5040449;28;20033;-59
2022/03/13 00:41:41;;;;;;;31.40;18.85;;;;;;;4.31;59.06;99448.25;5018107;28;20480;-59
2022/03/13 00:44:07;;;;;;;29.20;18.73;;;;;;;4.18;60.03;99452.41;5004704;28;20599;-58
2022/03/13 00:46:33;;;;;;;28.35;18.73;;;;;;;4.07;60.19;99458.16;5034388;28;20037;-59
2022/03/13 00:48:58;;;;;;;29.95;18.80;;;;;;;4.07;61.11;99457.31;5031292;28;20037;-59
2022/03/13 00:51:24;;;;;;;30.30;18.63;;;;;;;3.91;61.45;99419.53;5026282;28;20392;-59
2022/03/13 00:53:49;;;;;;;28.73;18.67;;;;;;;4.10;61.49;99454.56;5026938;28;20037;-59
2022/03/13 00:56:15;;;;;;;30.17;19.50;;;;;;;3.98;62.31;99462.06;5026544;28;20032;-59
2022/03/13 00:58:40;;;;;;;31.42;20.60;;;;;;;4.08;62.43;99453.84;4983212;28;20117;-59
2022/03/13 01:01:16;;;;;;;30.38;20.95;;;;;;;4.07;62.47;99449.59;5015444;28;20084;-59
2022/03/13 01:03:42;;;;;;;33.38;21.85;;;;;;;3.80;63.10;99404.69;5029332;28;20373;-60
2022/03/13 01:06:08;;;;;;;32.75;21.88;;;;;;;3.72;62.89;99396.53;5027731;28;20048;-59
2022/03/13 01:08:34;;;;;;;34.08;22.00;;;;;;;4.05;63.15;99436.78;5031970;28;20128;-59
2022/03/13 01:11:00;;;;;;;31.55;21.40;;;;;;;3.68;63.14;99389.91;5027730;28;20026;-60
2022/03/13 01:13:26;;;;;;;32.28;20.20;;;;;;;3.78;63.14;99434.81;5018667;28;20076;-59
2022/03/13 01:16:00;;;;;;;37.40;22.02;;;;;;;3.75;63.23;99441.84;5025294;28;20091;-58
2022/03/13 01:18:25;;;;;;;32.08;20.05;;;;;;;3.72;63.02;99431.72;5026142;28;20168;-58
2022/03/13 01:20:51;;;;;;;30.15;20.50;;;;;;;3.80;62.63;99443.28;5010306;28;20026;-59
2022/03/13 01:23:16;;;;;;;34.08;20.50;;;;;;;3.84;62.58;99439.63;5038708;28;20041;-59
2022/03/13 01:25:42;;;;;;;31.17;20.80;;;;;;;3.86;61.97;99431.81;5042242;28;20032;-59
2022/03/13 01:28:08;;;;;;;31.85;20.88;;;;;;;3.85;62.07;99428.44;5029659;28;20043;-59
2022/03/13 01:30:33;;;;;;;34.15;21.77;;;;;;;3.69;62.72;99414.72;5039407;28;20037;-59
2022/03/13 01:32:59;;;;;;;35.50;21.75;;;;;;;3.87;62.55;99430.91;5016602;28;20068;-58
2022/03/13 01:35:24;;;;;;;32.40;21.17;;;;;;;3.68;63.34;99428.47;5020558;28;20065;-60
2022/03/13 01:37:51;;;;;;;34.72;21.58;;;;;;;3.63;63.04;99410.72;5014878;28;20548;-58
2022/03/13 01:40:24;;;;;;;31.00;21.02;;;;;;;3.54;63.40;99424.06;5003814;28;20030;-59
2022/03/13 01:42:51;;;;;;;31.77;21.50;;;;;;;3.32;63.44;99365.22;5007783;28;20057;-59
2022/03/13 01:45:18;;;;;;;31.13;20.65;;;;;;;3.68;63.24;99415.63;5022710;28;20374;-59
2022/03/13 01:47:45;;;;;;;32.63;20.42;;;;;;;3.37;63.01;99352.13;5019743;28;20031;-59
2022/03/13 01:50:12;;;;;;;33.20;21.00;;;;;;;3.70;62.94;99410.41;5026713;28;20104;-59
2022/03/13 01:52:45;;;;;;;32.22;20.77;;;;;;;3.60;62.45;99402.34;5033490;28;20037;-59
2022/03/13 01:55:10;;;;;;;30.90;20.38;;;;;;;3.15;62.86;99350.66;5020193;28;20021;-59
2022/03/13 01:57:37;;;;;;;30.52;20.85;;;;;;;3.39;62.66;99394.00;5048886;28;20832;-60
2022/03/13 02:00:06;;;;;;;33.67;21.02;;;;;;;3.51;62.94;99408.81;5033944;28;20036;-59
2022/03/13 02:02:33;;;;;;;35.63;22.17;;;;;;;3.48;62.61;99401.22;5009549;28;20028;-59
2022/03/13 02:04:59;;;;;;;35.75;22.13;;;;;;;3.54;63.96;99398.38;5024372;28;20052;-59
2022/03/13 02:07:27;;;;;;;31.50;20.77;;;;;;;3.45;63.50;99381.66;5024500;28;20038;-58
2022/03/13 02:09:54;;;;;;;33.25;21.90;;;;;;;3.51;63.66;99389.97;5037683;28;20017;-59
2022/03/13 02:12:20;;;;;;;32.22;21.17;;;;;;;3.36;64.01;99395.00;5032814;28;20025;-60
2022/03/13 02:14:47;;;;;;;32.38;21.38;;;;;;;3.25;64.41;99403.28;5036416;28;20074;-59
2022/03/13 02:17:12;;;;;;;33.45;21.10;;;;;;;3.28;64.11;99386.84;5034375;28;20079;-59
2022/03/13 02:19:37;;;;;;;31.50;21.02;;;;;;;3.29;63.76;99373.09;5037813;28;20029;-59
2022/03/13 02:22:04;;;;;;;32.58;20.52;;;;;;;3.38;64.04;99384.66;5044682;28;20593;-58
2022/03/13 02:24:29;;;;;;;31.88;20.73;;;;;;;3.17;64.55;99384.00;5032076;28;20106;-59
2022/03/13 02:27:01;;;;;;;33.85;20.55;;;;;;;3.06;64.39;99369.13;5045374;28;20041;-58
2022/03/13 02:29:26;;;;;;;31.83;21.52;;;;;;;3.06;64.91;99385.38;5038622;28;20048;-59
2022/03/13 02:31:52;;;;;;;34.25;20.80;;;;;;;3.14;65.46;99382.44;5040224;28;20087;-59
2022/03/13 02:34:19;;;;;;;34.70;21.73;;;;;;;3.09;64.24;99356.13;5042924;28;20067;-59
2022/03/13 02:36:57;;;;;;;33.05;20.73;;;;;;;3.12;64.60;99375.69;5043856;28;20032;-59
2022/03/13 02:39:23;;;;;;;31.58;19.38;;;;;;;3.02;64.58;99373.59;5044732;28;20028;-59
2022/03/13 02:41:49;;;;;;;34.38;21.05;;;;;;;3.07;64.71;99378.53;5026049;28;20858;-58
2022/03/13 02:44:15;;;;;;;33.75;20.80;;;;;;;3.20;64.47;99376.97;5018677;28;20032;-59
2022/03/13 02:46:46;;;;;;;37.03;21.45;;;;;;;2.88;64.33;99327.22;5037656;28;20454;-59
2022/03/13 02:49:17;;;;;;;32.58;20.52;;;;;;;3.16;63.85;99379.75;5038517;28;20036;-60
2022/03/13 02:51:43;;;;;;;37.22;21.77;;;;;;;3.16;64.53;99384.91;5022185;28;20507;-58
2022/03/13 02:54:09;;;;;;;35.85;20.30;;;;;;;3.05;64.09;99380.34;5022773;28;20582;-60
2022/03/13 02:56:34;;;;;;;34.15;21.38;;;;;;;2.95;63.60;99367.13;5044757;28;20033;-59
2022/03/13 02:59:00;;;;;;;35.35;21.33;;;;;;;3.07;64.66;99375.94;5029108;28;20038;-59
2022/03/13 03:01:25;;;;;;;32.88;22.25;;;;;;;3.08;64.68;99380.16;5035729;28;20401;-59
2022/03/13 03:03:57;;;;;;;34.42;20.45;;;;;;;2.82;64.28;99346.34;5029440;28;20860;-59
2022/03/13 03:06:24;;;;;;;30.25;21.15;;;;;;;2.96;64.03;99373.09;5032372;28;20120;-59
2022/03/13 03:08:51;;;;;;;36.42;21.52;;;;;;;2.91;65.03;99373.31;5044646;28;20119;-59
2022/03/13 03:11:16;;;;;;;35.03;20.42;;;;;;;2.95;64.16;99372.25;5021883;28;20392;-60
2022/03/13 03:13:42;;;;;;;31.23;20.45;;;;;;;2.95;63.88;99382.53;5029775;28;20039;-59
2022/03/13 03:16:07;;;;;;;31.63;19.70;;;;;;;2.91;64.23;99375.88;5035374;28;20036;-59
2022/03/13 03:18:33;;;;;;;35.30;20.70;;;;;;;2.95;63.62;99374.81;5030411;28;20048;-59
2022/03/13 03:20:58;;;;;;;32.38;20.33;;;;;;;2.62;64.56;99323.41;5036362;28;20032;-59
2022/03/13 03:23:24;;;;;;;31.58;20.85;;;;;;;2.81;64.06;99380.66;5039900;28;20151;-59
2022/03/13 03:25:49;;;;;;;32.83;20.55;;;;;;;2.85;64.09;99381.34;5031975;28;20100;-58
2022/03/13 03:28:17;;;;;;;32.85;21.67;;;;;;;2.85;63.43;99387.31;5027562;28;20072;-59
2022/03/13 03:30:42;;;;;;;31.52;20.55;;;;;;;2.79;63.95;99384.19;5022264;28;20060;-59
2022/03/13 03:33:08;;;;;;;31.05;20.42;;;;;;;2.42;64.10;99335.50;5025147;28;20070;-58
2022/03/13 03:35:35;;;;;;;32.05;21.42;;;;;;;2.83;63.55;99378.84;5035140;28;20132;-58
2022/03/13 03:38:00;;;;;;;30.58;20.10;;;;;;;2.85;63.26;99371.91;5034796;28;20025;-59
2022/03/13 03:40:29;;;;;;;34.88;21.02;;;;;;;2.76;63.27;99381.81;5035592;28;20078;-59
2022/03/13 03:43:03;;;;;;;30.58;20.02;;;;;;;2.57;63.96;99369.03;5035941;28;20079;-59
2022/03/13 03:45:29;;;;;;;33.63;21.77;;;;;;;2.67;63.90;99380.53;5032759;28;20042;-59
2022/03/13 03:47:54;;;;;;;31.95;21.23;;;;;;;2.78;63.15;99383.38;5034987;28;20043;-59
2022/03/13 03:50:20;;;;;;;30.60;19.92;;;;;;;2.79;63.45;99385.06;5030261;28;20037;-59
2022/03/13 03:52:46;;;;;;;34.45;20.17;;;;;;;2.66;63.94;99386.56;5038933;28;20056;-59
2022/03/13 03:55:12;;;;;;;32.30;20.08;;;;;;;2.66;63.58;99382.22;5033451;28;20025;-59
2022/03/13 03:57:38;;;;;;;28.83;19.15;;;;;;;2.60;63.18;99350.91;5042028;28;20029;-59
2022/03/13 04:00:05;;;;;;;34.05;20.63;;;;;;;2.76;63.00;99361.25;5034504;28;20037;-58
2022/03/13 04:02:32;;;;;;;31.05;20.17;;;;;;;2.81;63.48;99380.66;5031197;28;20812;-59
2022/03/13 04:04:57;;;;;;;30.42;19.35;;;;;;;2.81;63.14;99374.69;5033607;28;20067;-59
2022/03/13 04:07:22;;;;;;;31.70;20.35;;;;;;;2.78;63.15;99388.50;5019219;28;20034;-59
2022/03/13 04:09:48;;;;;;;30.80;19.20;;;;;;;2.54;62.95;99343.50;5032332;28;20029;-59
2022/03/13 04:12:14;;;;;;;30.50;18.98;;;;;;;2.60;63.27;99344.03;5028893;28;20065;-59
2022/03/13 04:14:40;;;;;;;29.55;19.30;;;;;;;2.76;63.21;99382.63;5041786;28;20059;-60
2022/03/13 04:17:05;;;;;;;30.55;18.52;;;;;;;2.85;62.60;99391.63;5026627;28;20029;-59
2022/03/13 04:19:31;;;;;;;29.83;18.98;;;;;;;2.66;62.97;99383.97;5028491;28;20825;-59
2022/03/13 04:21:57;;;;;;;28.98;18.25;;;;;;;2.60;63.11;99379.97;5034547;28;20419;-59
2022/03/13 04:24:23;;;;;;;29.17;18.75;;;;;;;2.56;63.01;99369.94;5035415;28;20060;-59
2022/03/13 04:26:49;;;;;;;28.70;18.38;;;;;;;2.56;63.07;99387.94;5042593;28;20052;-59
2022/03/13 04:29:16;;;;;;;29.88;18.25;;;;;;;2.47;63.16;99397.72;5016740;28;20103;-59
2022/03/13 04:31:42;;;;;;;30.85;18.50;;;;;;;2.59;62.98;99396.31;5018474;28;20079;-59
2022/03/13 04:34:08;;;;;;;28.77;18.08;;;;;;;2.58;63.10;99398.94;5033895;28;20658;-59
2022/03/13 04:36:37;;;;;;;29.02;18.95;;;;;;;2.58;62.95;99398.94;5019159;28;20029;-56
2022/03/13 04:39:03;;;;;;;29.17;18.52;;;;;;;2.58;62.93;99394.63;5029756;28;20033;-59
2022/03/13 04:41:30;;;;;;;32.42;18.63;;;;;;;2.67;63.31;99401.88;5033435;28;20039;-61
2022/03/13 04:43:55;;;;;;;30.20;18.65;;;;;;;2.81;62.44;99396.06;5044290;28;20071;-58
2022/03/13 04:46:20;;;;;;;28.95;18.52;;;;;;;2.71;62.76;99389.72;5035467;28;20032;-59
2022/03/13 04:48:48;;;;;;;27.05;18.00;;;;;;;2.50;63.70;99353.09;5040105;28;20029;-59
2022/03/13 04:51:13;;;;;;;28.17;17.77;;;;;;;2.41;63.46;99344.13;5025204;28;20033;-58
2022/03/13 04:53:39;;;;;;;28.00;18.10;;;;;;;2.26;63.14;99335.44;5034808;28;20111;-59
2022/03/13 04:56:05;;;;;;;27.70;17.95;;;;;;;2.56;62.97;99393.88;5034813;28;20120;-59
2022/03/13 04:58:31;;;;;;;28.77;17.63;;;;;;;2.06;63.43;99305.63;5026898;28;20033;-59
2022/03/13 05:00:56;;;;;;;28.23;17.92;;;;;;;2.68;63.33;99402.72;5039199;28;20496;-58
2022/03/13 05:03:22;;;;;;;27.73;16.92;;;;;;;2.60;63.21;99392.81;5029059;28;20076;-59
2022/03/13 05:05:48;;;;;;;30.35;18.55;;;;;;;2.48;64.20;99403.69;5038663;28;20025;-59
2022/03/13 05:08:15;;;;;;;29.05;17.73;;;;;;;2.23;64.74;99368.94;5007111;28;20416;-59
2022/03/13 05:10:42;;;;;;;29.77;19.15;;;;;;;2.49;64.64;99403.59;5025683;28;20033;-60
2022/03/13 05:13:09;;;;;;;26.75;18.17;;;;;;;2.52;64.15;99394.94;5035347;28;20032;-59
2022/03/13 05:15:36;;;;;;;28.48;18.40;;;;;;;2.46;63.46;99402.94;5028255;28;20065;-59
2022/03/13 05:18:01;;;;;;;30.90;18.23;;;;;;;2.47;63.33;99402.84;5034764;28;20744;-59
2022/03/13 05:20:28;;;;;;;26.90;17.75;;;;;;;2.50;63.51;99400.16;5030481;28;20158;-59
2022/03/13 05:22:54;;;;;;;30.67;18.50;;;;;;;2.49;63.00;99398.47;5023779;28;20032;-59
2022/03/13 05:25:19;;;;;;;26.80;17.80;;;;;;;2.42;63.77;99401.41;5030141;28;20446;-60
2022/03/13 05:27:45;;;;;;;27.65;17.13;;;;;;;2.42;64.02;99396.28;5037841;28;20112;-59
2022/03/13 05:30:11;;;;;;;24.17;16.60;;;;;;;2.34;64.00;99412.06;5029918;28;20039;-59
2022/03/13 05:32:36;;;;;;;25.65;17.50;;;;;;;2.30;64.13;99400.28;5019842;28;20056;-60
2022/03/13 05:35:03;;;;;;;27.20;17.70;;;;;;;2.33;64.06;99400.13;5032585;28;20101;-59
2022/03/13 05:37:28;;;;;;;28.67;17.10;;;;;;;2.44;64.34;99413.25;5029213;28;20033;-59
2022/03/13 05:39:54;;;;;;;28.63;17.65;;;;;;;1.82;64.23;99311.91;5022702;28;20862;-59
2022/03/13 05:42:24;;;;;;;33.22;18.83;;;;;;;2.37;63.88;99411.88;5031149;28;20047;-60
2022/03/13 05:44:52;;;;;;;27.85;17.30;;;;;;;2.29;64.32;99399.44;5034708;28;20033;-59
2022/03/13 05:47:18;;;;;;;29.33;18.17;;;;;;;2.37;64.05;99419.59;5035934;28;20044;-59
2022/03/13 05:49:45;;;;;;;29.25;18.02;;;;;;;2.28;64.37;99426.00;5038674;28;20052;-59
2022/03/13 05:52:15;;;;;;;27.20;18.58;;;;;;;2.25;64.39;99421.03;5043189;28;20059;-59
2022/03/13 05:54:42;;;;;;;27.10;16.83;;;;;;;2.38;64.52;99425.56;5038249;28;20032;-59
2022/03/13 05:57:10;;;;;;;28.27;16.63;;;;;;;2.38;63.99;99435.84;5022577;28;20538;-59
2022/03/13 05:59:36;;;;;;;30.38;18.00;;;;;;;2.31;64.90;99432.72;5028080;28;20072;-59
2022/03/13 06:02:04;;;;;;;25.83;16.50;;;;;;;2.14;64.17;99399.34;5037675;28;20044;-59
2022/03/13 06:04:31;;;;;;;28.23;18.20;;;;;;;2.31;64.34;99435.28;5028872;28;20140;-59
2022/03/13 06:06:56;;;;;;;26.42;17.65;;;;;;;2.31;64.36;99443.81;5043461;28;20112;-59
2022/03/13 06:09:22;;;;;;;27.42;17.35;;;;;;;2.28;64.55;99435.44;5039464;28;20124;-58
2022/03/13 06:11:47;;;;;;;26.77;17.00;;;;;;;2.41;63.67;99443.38;5038051;28;20036;-59
2022/03/13 06:14:12;;;;;;;29.88;17.90;;;;;;;2.07;64.08;99402.19;5034727;28;20041;-58
2022/03/13 06:16:38;;;;;;;29.23;18.90;;;;;;;2.33;63.76;99441.19;5040510;28;20468;-59
2022/03/13 06:19:03;;;;;;;30.98;19.08;;;;;;;2.50;64.08;99451.50;5042347;28;20040;-58
2022/03/13 06:21:29;;;;;;;28.90;17.85;;;;;;;2.25;64.20;99413.31;5023870;28;20128;-58
2022/03/13 06:23:54;;;;;;;29.00;18.10;;;;;;;2.56;63.72;99462.38;5039443;28;20099;-60
2022/03/13 06:26:20;;;;;;;32.22;16.48;;;;;;;2.68;63.79;99456.63;5045800;28;20480;-59
2022/03/13 06:28:45;;;;;;;26.70;17.52;;;;;;;2.74;64.30;99469.19;5030820;28;20040;-59
2022/03/13 06:31:11;;;;;;;27.02;17.33;;;;;;;2.54;63.81;99471.88;5046618;28;20032;-59
2022/03/13 06:33:37;;;;;;;26.55;16.83;;;;;;;2.36;63.68;99425.66;5032864;28;20047;-59
2022/03/13 06:36:02;;;;;;;28.40;17.73;;;;;;;2.61;63.68;99471.53;5043410;28;20037;-58
2022/03/13 06:38:28;;;;;;;28.30;16.15;;;;;;;2.62;63.58;99468.03;5043764;28;20033;-58
2022/03/13 06:40:54;;;;;;;29.80;18.15;;;;;;;2.65;63.82;99469.66;5044307;28;20063;-59
2022/03/13 06:43:20;;;;;;;27.20;16.85;;;;;;;2.80;63.51;99481.72;5029932;28;20108;-60
2022/03/13 06:45:45;;;;;;;27.30;17.17;;;;;;;2.79;63.93;99479.22;5030823;28;20434;-59
2022/03/13 06:48:13;;;;;;;25.35;16.98;;;;;;;2.72;64.78;99481.28;5024202;28;20024;-59
2022/03/13 06:50:39;;;;;;;26.33;16.67;;;;;;;2.72;63.93;99477.88;5041189;28;20048;-59
2022/03/13 06:53:04;;;;;;;28.02;17.05;;;;;;;2.67;63.61;99488.38;5032753;28;20057;-59
2022/03/13 06:55:30;;;;;;;26.95;16.17;;;;;;;2.84;63.94;99480.69;5032680;28;20067;-59
2022/03/13 06:57:55;;;;;;;26.67;17.70;;;;;;;2.88;63.09;99473.66;5017638;28;20031;-58
2022/03/13 07:00:21;;;;;;;24.63;16.00;;;;;;;3.00;63.68;99496.19;5039866;28;20033;-59
2022/03/13 07:02:47;;;;;;;24.90;16.60;;;;;;;2.96;63.35;99481.84;5043028;28;20466;-59
2022/03/13 07:05:13;;;;;;;22.92;15.18;;;;;;;2.89;63.57;99490.75;5028058;28;20494;-59
2022/03/13 07:07:38;;;;;;;26.25;15.65;;;;;;;2.86;63.13;99483.16;5041885;28;20035;-58
2022/03/13 07:10:10;;;;;;;24.50;15.73;;;;;;;2.76;63.52;99469.13;5033079;28;20060;-58
2022/03/13 07:12:36;;;;;;;25.08;16.70;;;;;;;3.07;63.36;99487.25;5037497;28;20051;-58
2022/03/13 07:15:01;;;;;;;23.70;15.50;;;;;;;3.15;62.94;99475.78;5039959;28;20480;-59
2022/03/13 07:17:27;;;;;;;24.48;16.33;;;;;;;3.16;63.44;99472.28;5042689;28;20452;-59
2022/03/13 07:19:52;;;;;;;23.23;15.18;;;;;;;3.12;63.18;99486.19;5038805;28;20041;-58
2022/03/13 07:22:18;;;;;;;24.30;15.07;;;;;;;3.12;62.62;99488.78;5035858;28;20048;-59
2022/03/13 07:24:46;;;;;;;26.00;16.48;;;;;;;3.18;62.69;99486.75;5021914;28;20380;-58
2022/03/13 07:27:13;;;;;;;26.67;15.52;;;;;;;3.19;63.00;99485.81;5032913;28;20106;-59
2022/03/13 07:29:38;;;;;;;23.27;14.88;;;;;;;2.84;63.16;99423.34;5031935;28;20024;-58
2022/03/13 07:32:04;;;;;;;24.73;15.43;;;;;;;3.12;62.87;99484.47;5029043;28;20029;-58
2022/03/13 07:34:30;;;;;;;22.08;15.20;;;;;;;3.19;62.94;99479.84;5023593;28;20791;-59
2022/03/13 07:36:55;;;;;;;27.45;16.60;;;;;;;3.25;62.99;99477.00;5007825;28;20099;-58
2022/03/13 07:39:21;;;;;;;24.15;15.98;;;;;;;2.93;63.15;99435.72;5015899;28;20289;-59
2022/03/13 07:41:47;;;;;;;24.92;16.48;;;;;;;3.08;62.93;99450.41;5009833;28;20905;-58
2022/03/13 07:44:12;;;;;;;24.33;16.20;;;;;;;3.33;62.82;99471.47;5015214;28;20140;-59
2022/03/13 07:46:38;;;;;;;25.23;15.70;;;;;;;3.41;62.69;99467.59;5025194;28;20711;-59
2022/03/13 07:49:03;;;;;;;27.95;15.57;;;;;;;3.47;62.57;99472.41;5009732;28;20095;-59
2022/03/13 07:51:29;;;;;;;27.77;15.98;;;;;;;3.46;62.36;99470.72;5010790;28;20722;-59
2022/03/13 07:53:54;;;;;;;25.10;16.83;;;;;;;3.37;62.87;99466.06;5008228;28;20108;-59
2022/03/13 07:56:20;;;;;;;26.67;16.63;;;;;;;3.53;62.38;99460.16;5006354;28;20037;-59
2022/03/13 07:58:45;;;;;;;24.75;15.65;;;;;;;3.64;61.95;99457.84;5007642;28;20046;-59
2022/03/13 08:01:11;;;;;;;26.13;15.43;;;;;;;3.42;62.33;99414.41;5011095;28;20040;-59
2022/03/13 08:03:38;;;;;;;26.20;16.85;;;;;;;3.53;62.18;99404.41;5009533;28;20051;-59
2022/03/13 08:06:04;;;;;;;26.80;16.58;;;;;;;3.81;62.11;99456.97;5019023;28;20803;-59
2022/03/13 08:08:30;;;;;;;25.70;17.40;;;;;;;3.89;62.40;99451.41;5016825;28;20532;-58
2022/03/13 08:10:56;;;;;;;27.63;16.98;;;;;;;3.67;62.67;99419.13;5010075;28;20064;-58
2022/03/13 08:13:22;;;;;;;23.77;15.25;;;;;;;3.90;61.40;99460.78;5023693;28;20572;-58
2022/03/13 08:15:47;;;;;;;21.98;15.18;;;;;;;3.77;61.65;99458.03;5015323;28;20364;-59
2022/03/13 08:18:13;;;;;;;25.05;14.70;;;;;;;3.77;61.78;99446.00;5012979;28;20067;-59
2022/03/13 08:20:39;;;;;;;24.48;15.23;;;;;;;3.61;60.91;99414.28;5023865;28;20030;-59
2022/03/13 08:23:04;;;;;;;22.25;14.80;;;;;;;3.75;60.91;99459.88;5014777;28;20030;-59
2022/03/13 08:25:30;;;;;;;24.98;14.52;;;;;;;3.73;61.04;99465.09;5025774;28;20187;-59
2022/03/13 08:27:55;;;;;;;23.60;16.10;;;;;;;3.82;60.72;99467.16;5028605;28;20029;-59
2022/03/13 08:30:21;;;;;;;24.75;16.20;;;;;;;3.95;60.44;99462.22;5026984;28;20021;-59
2022/03/13 08:32:46;;;;;;;27.20;16.45;;;;;;;3.88;60.92;99455.72;5032824;28;20064;-58
2022/03/13 08:35:12;;;;;;;31.52;19.35;;;;;;;3.82;61.52;99461.19;5029018;28;20378;-59
2022/03/13 08:37:38;;;;;;;42.83;27.38;;;;;;;3.71;61.37;99458.38;5032469;28;20288;-59
2022/03/13 08:40:04;;;;;;;38.40;25.40;;;;;;;3.83;61.31;99450.84;5025676;28;20032;-59
2022/03/13 08:42:31;;;;;;;28.10;19.17;;;;;;;3.95;61.01;99454.47;5031265;28;20075;-58
2022/03/13 08:44:57;;;;;;;22.15;15.27;;;;;;;4.04;60.06;99451.41;5026811;28;20037;-59
2022/03/13 08:47:22;;;;;;;21.40;13.80;;;;;;;4.02;59.11;99458.38;5010502;28;20037;-59
2022/03/13 08:49:50;;;;;;;19.10;12.23;;;;;;;3.74;59.08;99406.75;5014718;28;20038;-59
2022/03/13 08:52:16;;;;;;;18.08;12.07;;;;;;;4.06;59.21;99450.50;5017906;28;20044;-60
2022/03/13 08:54:41;;;;;;;18.20;11.43;;;;;;;4.08;58.73;99457.22;5007925;28;20033;-59
2022/03/13 08:57:07;;;;;;;20.85;12.65;;;;;;;4.11;59.81;99461.41;4999037;28;20037;-58
2022/03/13 08:59:34;;;;;;;18.05;11.95;;;;;;;4.11;59.23;99462.22;5020257;28;20060;-59
2022/03/13 09:01:59;;;;;;;19.02;11.70;;;;;;;4.12;59.63;99460.47;5006846;28;20025;-58
2022/03/13 09:04:25;;;;;;;16.75;10.93;;;;;;;4.24;59.24;99454.66;5007325;28;20451;-58
2022/03/13 09:06:51;;;;;;;17.83;11.07;;;;;;;4.16;58.35;99456.81;5002629;28;20071;-59
2022/03/13 09:09:19;;;;;;;19.20;10.77;;;;;;;4.21;57.51;99453.06;5014185;28;20014;-59
2022/03/13 09:11:47;;;;;;;19.27;11.13;;;;;;;4.27;58.71;99454.50;5005528;28;20111;-58
2022/03/13 09:14:12;;;;;;;19.30;11.88;;;;;;;4.27;57.89;99448.50;5022093;28;20021;-59
2022/03/13 09:16:39;;;;;;;18.80;11.52;;;;;;;4.00;58.27;99406.19;5009166;28;20503;-58
2022/03/13 09:19:05;;;;;;;17.67;10.85;;;;;;;4.34;58.40;99440.34;5006853;28;20529;-58
2022/03/13 09:21:31;;;;;;;18.73;11.23;;;;;;;4.46;58.35;99444.00;5006614;28;20029;-58
2022/03/13 09:23:57;;;;;;;18.45;11.70;;;;;;;4.52;58.49;99445.41;5003928;28;20105;-59
2022/03/13 09:26:22;;;;;;;16.92;10.70;;;;;;;4.50;58.17;99439.50;5010137;28;20038;-59
2022/03/13 09:28:48;;;;;;;18.48;11.35;;;;;;;4.61;58.47;99445.72;5013006;28;20021;-58
2022/03/13 09:31:14;;;;;;;15.57;10.32;;;;;;;4.66;58.83;99444.63;5022934;28;20479;-59
2022/03/13 09:33:39;;;;;;;16.55;10.23;;;;;;;4.69;57.89;99442.72;5004976;28;20656;-60
2022/03/13 09:36:06;;;;;;;16.20;10.05;;;;;;;4.77;57.80;99442.28;5022009;28;20053;-59
2022/03/13 09:38:31;;;;;;;16.30;10.40;;;;;;;4.85;57.38;99437.50;5015059;28;20798;-58
2022/03/13 09:40:57;;;;;;;17.13;11.00;;;;;;;4.98;58.26;99440.19;5003369;28;20448;-59
2022/03/13 09:43:23;;;;;;;17.98;11.02;;;;;;;5.01;59.09;99440.84;5002441;28;20489;-58
2022/03/13 09:45:49;;;;;;;17.25;11.30;;;;;;;5.08;58.40;99441.34;5005384;28;20057;-59
2022/03/13 09:48:17;;;;;;;16.15;10.30;;;;;;;5.24;57.51;99435.25;5004560;28;20037;-59
2022/03/13 09:50:43;;;;;;;17.92;10.90;;;;;;;5.30;57.58;99432.34;4993029;28;20644;-58
2022/03/13 09:53:10;;;;;;;17.95;10.90;;;;;;;5.32;57.54;99433.06;5004961;28;20033;-59
2022/03/13 09:55:35;;;;;;;15.40;11.02;;;;;;;5.39;57.77;99434.38;5003731;28;20079;-58
2022/03/13 09:58:01;;;;;;;17.45;11.35;;;;;;;5.52;56.38;99437.03;5000850;28;20030;-59
2022/03/13 10:00:26;;;;;;;19.58;11.68;;;;;;;5.59;55.78;99405.63;4999334;28;20091;-58
2022/03/13 10:02:53;;;;;;;17.27;11.85;;;;;;;5.94;54.88;99428.41;5003959;28;20481;-58
2022/03/13 10:05:20;;;;;;;17.25;11.52;;;;;;;6.01;54.24;99425.50;5003418;28;20160;-59
2022/03/13 10:08:00;;;;;;;16.88;11.27;;;;;;;6.11;53.89;99417.06;4996254;28;20037;-58
2022/03/13 10:10:40;;;;;;;15.70;10.80;;;;;;;6.26;53.23;99420.47;5001683;28;20037;-58
2022/03/13 10:13:05;;;;;;;17.48;11.15;;;;;;;6.28;53.06;99415.16;5002099;28;20036;-59
2022/03/13 10:15:41;;;;;;;20.77;12.27;;;;;;;6.44;53.08;99421.00;5002720;28;20033;-58
2022/03/13 10:18:15;;;;;;;16.65;12.02;;;;;;;6.55;52.06;99412.56;5006124;28;20038;-57
2022/03/13 10:20:41;;;;;;;18.42;12.48;;;;;;;6.61;51.59;99421.69;5001421;28;20034;-57
2022/03/13 10:23:18;;;;;;;18.50;12.60;;;;;;;6.64;51.00;99413.72;5002675;28;20022;-58
2022/03/13 10:25:46;;;;;;;18.48;12.07;;;;;;;6.59;51.74;99408.88;5014272;28;20041;-58
2022/03/13 10:28:19;;;;;;;18.25;12.50;;;;;;;6.64;52.29;99401.63;5012347;28;20029;-57
2022/03/13 10:31:05;;;;;;;18.52;12.57;;;;;;;6.76;50.90;99406.94;5012859;28;20029;-58
2022/03/13 10:33:43;;;;;;;18.08;12.57;;;;;;;6.92;50.74;99400.66;5013232;28;20026;-59
2022/03/13 10:36:16;;;;;;;19.67;12.85;;;;;;;6.63;50.67;99355.25;5016139;28;20037;-59
2022/03/13 10:38:44;;;;;;;20.55;13.27;;;;;;;6.86;50.98;99403.66;5027032;28;20025;-59
2022/03/13 10:41:10;;;;;;;19.17;12.52;;;;;;;6.86;50.80;99387.31;4959117;28;20034;-60
2022/03/13 10:43:45;;;;;;;21.02;12.80;;;;;;;6.96;50.54;99393.53;5027409;28;20111;-60
2022/03/13 10:46:16;;;;;;;19.60;12.27;;;;;;;6.92;49.99;99392.09;5042809;28;20044;-61
2022/03/13 10:48:43;;;;;;;18.13;12.55;;;;;;;7.00;50.64;99382.03;5000738;28;20502;-62
2022/03/13 10:51:12;;;;;;;21.13;13.25;;;;;;;7.05;49.78;99377.41;5022132;28;20029;-63
2022/03/13 10:53:41;;;;;;;21.95;13.65;;;;;;;7.28;50.28;99377.56;5011141;28;20060;-61
2022/03/13 10:56:09;;;;;;;18.95;12.95;;;;;;;7.26;48.04;99351.81;5054813;28;20029;-63
2022/03/13 10:58:48;;;;;;;19.70;13.40;;;;;;;7.24;49.34;99338.16;5037926;28;20033;-63
2022/03/13 11:01:18;;;;;;;18.58;13.27;;;;;;;7.38;49.52;99365.69;5023264;28;20116;-61
2022/03/13 11:04:06;;;;;;;18.67;13.57;;;;;;;7.47;50.12;99359.03;5019918;28;20029;-61
2022/03/13 11:06:32;;;;;;;18.70;12.35;;;;;;;7.34;48.81;99320.25;5015890;28;20088;-62
2022/03/13 11:08:59;;;;;;;18.13;12.98;;;;;;;7.51;48.37;99361.28;5010059;28;20116;-61
2022/03/13 11:11:29;;;;;;;17.90;12.93;;;;;;;7.65;48.39;99362.13;5002765;28;20041;-64
2022/03/13 11:13:57;;;;;;;18.45;13.18;;;;;;;7.64;48.48;99348.31;5056902;28;20025;-62
2022/03/13 11:16:27;;;;;;;20.60;12.57;;;;;;;7.71;47.99;99356.50;5034579;28;20451;-60
2022/03/13 11:18:55;;;;;;;19.90;13.30;;;;;;;7.72;48.31;99346.97;5020471;28;20026;-61
2022/03/13 11:21:21;;;;;;;19.63;13.10;;;;;;;7.65;47.81;99341.41;5022161;28;20433;-62
2022/03/13 11:23:47;;;;;;;19.77;13.45;;;;;;;7.69;48.27;99342.84;5011483;28;20025;-61